createdAt,value
2018-05-09T00:01:27.840Z,3.57
2018-05-09T00:06:56.961Z,3.13
2018-05-09T00:12:25.119Z,3.63
2018-05-09T00:17:53.265Z,3.70
2018-05-09T00:23:21.420Z,4.07
2018-05-09T00:28:49.544Z,3.60
2018-05-09T00:34:17.703Z,3.73
2018-05-09T00:39:45.842Z,3.90
2018-05-09T00:45:14.042Z,3.87
2018-05-09T00:50:42.179Z,4.00
2018-05-09T00:56:10.315Z,4.07
2018-05-09T01:01:38.772Z,4.43
2018-05-09T01:07:06.906Z,4.00
2018-05-09T01:12:35.100Z,4.33
2018-05-09T01:18:04.025Z,4.20
2018-05-09T01:23:32.263Z,4.53
2018-05-09T01:29:00.425Z,3.50
2018-05-09T01:34:28.546Z,3.90
2018-05-09T01:39:56.693Z,5.00
2018-05-09T01:45:24.846Z,4.43
2018-05-09T01:50:52.979Z,4.20
2018-05-09T01:56:21.907Z,3.53
2018-05-09T02:01:50.028Z,4.73
2018-05-09T02:07:18.925Z,5.43
2018-05-09T02:12:47.073Z,4.57
2018-05-09T02:18:15.238Z,5.10
2018-05-09T02:23:43.377Z,5.10
2018-05-09T02:29:11.528Z,4.37
2018-05-09T02:34:40.879Z,5.37
2018-05-09T02:40:09.060Z,4.70
2018-05-09T02:45:37.211Z,5.03
2018-05-09T02:51:05.364Z,5.40
2018-05-09T02:56:33.528Z,5.60
2018-05-09T03:02:01.707Z,4.63
2018-05-09T03:07:29.852Z,5.20
2018-05-09T03:12:58.010Z,5.30
2018-05-09T03:18:27.169Z,6.40
2018-05-09T03:23:56.089Z,5.90
2018-05-09T03:29:25.257Z,4.97
2018-05-09T03:34:54.160Z,5.83
2018-05-09T03:40:22.320Z,5.27
2018-05-09T03:45:51.225Z,6.20
2018-05-09T03:51:20.483Z,5.70
2018-05-09T03:56:48.647Z,5.97
2018-05-09T04:02:38.446Z,6.40
2018-05-09T04:08:25.223Z,7.17
2018-05-09T04:13:53.418Z,6.77
2018-05-09T04:19:22.339Z,7.60
2018-05-09T04:24:50.470Z,6.50
2018-05-09T04:30:19.404Z,6.97
2018-05-09T04:35:47.544Z,7.03
2018-05-09T04:41:16.495Z,7.37
2018-05-09T04:46:46.022Z,7.60
2018-05-09T04:52:14.962Z,7.17
2018-05-09T04:57:43.863Z,7.53
2018-05-09T05:03:12.013Z,7.77
2018-05-09T05:08:40.154Z,7.30
2018-05-09T05:14:09.071Z,7.33
2018-05-09T05:19:37.257Z,7.33
2018-05-09T05:25:05.415Z,8.23
2018-05-09T05:30:34.382Z,8.70
2018-05-09T05:36:02.581Z,9.27
2018-05-09T05:41:31.541Z,7.67
2018-05-09T05:46:59.673Z,7.83
2018-05-09T05:52:28.590Z,8.53
2018-05-09T05:57:56.720Z,7.37
2018-05-09T06:03:24.866Z,7.97
2018-05-09T06:08:53.028Z,8.93
2018-05-09T06:14:23.918Z,9.03
2018-05-09T06:19:52.830Z,9.23
2018-05-09T06:25:20.993Z,9.93
2018-05-09T06:30:49.187Z,8.97
2018-05-09T06:36:17.311Z,9.00
2018-05-09T06:41:46.270Z,8.00
2018-05-09T06:47:14.396Z,7.73
2018-05-09T06:52:42.549Z,7.90
2018-05-09T06:58:10.722Z,7.67
2018-05-09T07:03:39.622Z,7.40
2018-05-09T07:09:07.801Z,7.57
2018-05-09T07:14:36.001Z,9.83
2018-05-09T07:20:04.954Z,7.27
2018-05-09T07:25:33.161Z,7.93
2018-05-09T07:31:01.313Z,7.13
2018-05-09T07:36:29.459Z,8.00
2018-05-09T07:41:57.632Z,7.93
2018-05-09T07:47:25.772Z,8.50
2018-05-09T07:52:53.900Z,7.53
2018-05-09T07:58:22.035Z,6.90
2018-05-09T08:03:50.208Z,7.00
2018-05-09T08:09:18.357Z,7.70
2018-05-09T08:14:46.493Z,6.73
2018-05-09T08:20:14.616Z,6.53
2018-05-09T08:25:42.776Z,7.10
2018-05-09T08:31:11.709Z,5.53
2018-05-09T08:36:40.627Z,6.43
2018-05-09T08:42:08.783Z,6.27
2018-05-09T08:47:36.941Z,6.53
2018-05-09T08:53:05.894Z,6.60
2018-05-09T08:58:34.041Z,5.60
2018-05-09T09:04:02.980Z,6.00
2018-05-09T09:09:31.222Z,6.40
2018-05-09T09:14:59.396Z,6.83
2018-05-09T09:20:27.538Z,5.73
2018-05-09T09:25:56.435Z,7.60
2018-05-09T09:31:24.589Z,4.60
2018-05-09T09:36:53.524Z,6.07
2018-05-09T09:42:22.435Z,5.20
2018-05-09T09:47:50.599Z,5.63
2018-05-09T09:53:18.741Z,4.70
2018-05-09T09:58:46.885Z,4.80
2018-05-09T10:04:15.022Z,5.60
2018-05-09T10:09:43.166Z,4.80
2018-05-09T10:15:12.093Z,4.93
2018-05-09T10:20:41.012Z,3.93
2018-05-09T10:26:09.155Z,5.23
2018-05-09T10:31:38.196Z,4.00
2018-05-09T10:37:06.291Z,3.80
2018-05-09T10:42:34.461Z,3.80
2018-05-09T10:48:02.605Z,3.30
2018-05-09T10:53:30.866Z,3.30
2018-05-09T10:58:59.005Z,2.30
2018-05-09T11:04:27.904Z,3.37
2018-05-09T11:09:56.050Z,3.20
2018-05-09T11:15:24.950Z,3.30
2018-05-09T11:20:53.084Z,2.80
2018-05-09T11:26:21.225Z,3.57
2018-05-09T11:31:50.137Z,2.70
2018-05-09T11:37:18.301Z,3.40
2018-05-09T11:42:47.221Z,3.17
2018-05-09T11:48:16.124Z,3.00
2018-05-09T11:53:44.274Z,3.33
2018-05-09T11:59:12.408Z,3.43
2018-05-09T12:04:41.322Z,2.90
2018-05-09T12:10:09.459Z,3.33
2018-05-09T12:15:38.466Z,3.17
2018-05-09T12:21:06.611Z,2.93
2018-05-09T12:26:34.765Z,3.37
2018-05-09T12:32:02.911Z,3.97
2018-05-09T12:37:31.084Z,3.77
2018-05-09T12:42:59.241Z,3.43
2018-05-09T12:48:27.364Z,3.80
2018-05-09T12:53:55.510Z,4.17
2018-05-09T12:59:23.662Z,3.33
2018-05-09T13:04:52.565Z,2.70
2018-05-09T13:10:20.738Z,3.77
2018-05-09T13:15:48.901Z,4.00
2018-05-09T13:21:17.065Z,2.80
2018-05-09T13:26:45.204Z,3.10
2018-05-09T13:32:13.341Z,3.33
2018-05-09T13:37:41.490Z,3.00
2018-05-09T13:43:09.661Z,3.70
2018-05-09T13:48:37.799Z,4.60
2018-05-09T13:54:05.998Z,4.17
2018-05-09T13:59:35.810Z,4.07
2018-05-09T14:05:04.170Z,4.03
2018-05-09T14:10:32.546Z,3.80
2018-05-09T14:16:00.863Z,4.10
2018-05-09T14:21:29.008Z,3.10
2018-05-09T14:26:57.157Z,2.60
2018-05-09T14:32:25.311Z,2.80
2018-05-09T14:37:53.481Z,2.17
2018-05-09T14:43:22.388Z,2.13
2018-05-09T14:48:50.524Z,2.73
2018-05-09T14:54:18.683Z,3.77
2018-05-09T14:59:46.828Z,3.40
2018-05-09T15:05:14.966Z,3.57
2018-05-09T15:10:43.121Z,3.10
2018-05-09T15:16:12.057Z,3.73
2018-05-09T15:21:40.988Z,3.77
2018-05-09T15:27:09.917Z,4.03
2018-05-09T15:32:38.113Z,3.90
2018-05-09T15:38:06.308Z,4.63
2018-05-09T15:43:34.489Z,3.60
2018-05-09T15:49:02.723Z,2.90
2018-05-09T15:54:30.820Z,2.70
2018-05-09T15:59:59.836Z,2.70
2018-05-09T16:05:28.736Z,14.67
2018-05-09T16:10:56.816Z,2.20
2018-05-09T16:16:25.720Z,5.50
2018-05-09T16:21:53.866Z,4.23
2018-05-09T16:27:22.006Z,4.80
2018-05-09T16:32:52.182Z,4.23
2018-05-09T16:38:20.341Z,3.60
2018-05-09T16:43:48.490Z,3.20
2018-05-09T16:49:17.400Z,4.73
2018-05-09T16:54:45.556Z,3.37
2018-05-09T17:00:14.469Z,3.67
2018-05-09T17:05:42.610Z,3.10
2018-05-09T17:11:11.504Z,4.07
2018-05-09T17:16:39.673Z,3.60
2018-05-09T17:22:28.379Z,3.80
2018-05-09T17:27:57.299Z,3.60
2018-05-09T17:33:25.428Z,3.40
2018-05-09T17:38:54.404Z,4.13
2018-05-09T17:44:22.597Z,3.93
2018-05-09T17:49:51.503Z,3.30
2018-05-09T17:55:19.657Z,3.40
2018-05-09T18:00:48.611Z,2.70
2018-05-09T18:06:16.774Z,4.17
2018-05-09T18:11:44.988Z,3.80
2018-05-09T18:17:13.185Z,3.20
2018-05-09T18:22:41.388Z,3.83
2018-05-09T18:28:09.522Z,2.90
2018-05-09T18:33:37.717Z,2.57
2018-05-09T18:39:05.869Z,2.60
2018-05-09T18:44:34.007Z,2.50
2018-05-09T18:50:02.173Z,3.30
2018-05-09T18:55:30.367Z,2.67
2018-05-09T19:00:58.521Z,2.30
2018-05-09T19:06:27.442Z,2.73
2018-05-09T19:11:56.363Z,2.70
2018-05-09T19:17:24.514Z,2.77
2018-05-09T19:22:52.705Z,2.73
2018-05-09T19:28:20.868Z,3.07
2018-05-09T19:33:49.031Z,3.77
2018-05-09T19:39:17.185Z,3.30
2018-05-09T19:44:45.320Z,3.57
2018-05-09T19:50:13.481Z,4.63
2018-05-09T19:55:42.541Z,3.60
2018-05-09T20:01:10.688Z,4.70
2018-05-09T20:06:39.742Z,3.90
2018-05-09T20:12:07.898Z,4.40
2018-05-09T20:17:36.086Z,4.30
2018-05-09T20:23:04.257Z,4.50
2018-05-09T20:28:33.242Z,3.97
2018-05-09T20:34:01.457Z,4.67
2018-05-09T20:39:29.625Z,4.10
2018-05-09T20:44:57.796Z,4.27
2018-05-09T20:50:26.089Z,5.23
2018-05-09T20:55:54.230Z,5.07
2018-05-09T21:01:40.356Z,5.57
2018-05-09T21:07:09.288Z,5.90
2018-05-09T21:12:38.259Z,5.77
2018-05-09T21:18:07.424Z,6.63
2018-05-09T21:23:35.617Z,6.63
2018-05-09T21:29:03.795Z,5.63
2018-05-09T21:34:33.200Z,5.53
2018-05-09T21:40:01.358Z,6.87
2018-05-09T21:45:29.512Z,7.03
2018-05-09T21:50:59.591Z,5.90
2018-05-09T21:56:28.705Z,6.90
2018-05-09T22:01:56.874Z,6.80
2018-05-09T22:07:25.048Z,7.57
2018-05-09T22:12:54.262Z,8.20
2018-05-09T22:18:22.421Z,8.03
2018-05-09T22:23:51.349Z,8.50
2018-05-09T22:29:20.279Z,7.50
2018-05-09T22:34:58.423Z,7.47
2018-05-09T22:40:26.594Z,7.43
2018-05-09T22:45:54.735Z,7.17
2018-05-09T22:51:22.976Z,7.30
2018-05-09T22:56:51.144Z,7.40
2018-05-09T23:02:19.281Z,7.70
2018-05-09T23:07:47.434Z,7.20
2018-05-09T23:13:15.578Z,8.10
2018-05-09T23:18:43.742Z,9.13
2018-05-09T23:24:11.892Z,7.67
2018-05-09T23:29:40.040Z,7.67
2018-05-09T23:35:08.955Z,6.73
2018-05-09T23:40:37.218Z,7.20
2018-05-09T23:46:05.313Z,6.87
2018-05-09T23:51:33.825Z,8.40
2018-05-09T23:57:02.753Z,7.63
